createdAt,value
2023-01-29T00:01:12.274Z,60.60
2023-01-29T00:03:40.699Z,62.10
2023-01-29T00:06:09.988Z,62.90
2023-01-29T00:08:39.697Z,63.80
2023-01-29T00:11:09.469Z,63.90
2023-01-29T00:13:37.916Z,57.90
2023-01-29T00:16:06.383Z,55.20
2023-01-29T00:18:34.589Z,53.30
2023-01-29T00:21:02.975Z,52.40
2023-01-29T00:23:31.449Z,51.00
2023-01-29T00:26:01.092Z,50.00
2023-01-29T00:28:29.399Z,49.20
2023-01-29T00:30:57.784Z,48.20
2023-01-29T00:33:26.143Z,47.50
2023-01-29T00:35:54.461Z,46.60
2023-01-29T00:38:22.566Z,46.00
2023-01-29T00:40:51.001Z,45.40
2023-01-29T00:43:19.188Z,44.80
2023-01-29T00:45:47.451Z,45.70
2023-01-29T00:48:15.575Z,50.80
2023-01-29T00:50:43.919Z,54.00
2023-01-29T00:53:12.153Z,56.20
2023-01-29T00:55:40.437Z,58.20
2023-01-29T00:58:08.641Z,59.90
2023-01-29T01:00:36.950Z,61.30
2023-01-29T01:03:05.196Z,62.30
2023-01-29T01:05:33.440Z,62.50
2023-01-29T01:08:02.667Z,63.10
2023-01-29T01:10:33.307Z,58.10
2023-01-29T01:13:07.117Z,54.90
2023-01-29T01:15:38.561Z,53.20
2023-01-29T01:18:07.167Z,51.90
2023-01-29T01:20:36.670Z,50.70
2023-01-29T01:23:05.196Z,49.70
2023-01-29T01:25:35.010Z,48.80
2023-01-29T01:28:03.314Z,47.80
2023-01-29T01:30:31.522Z,47.00
2023-01-29T01:33:00.028Z,46.50
2023-01-29T01:35:28.426Z,45.90
2023-01-29T01:37:56.624Z,45.90
2023-01-29T01:40:26.280Z,49.60
2023-01-29T01:43:00.127Z,53.90
2023-01-29T01:45:37.640Z,56.30
2023-01-29T01:48:08.310Z,58.30
2023-01-29T01:50:57.114Z,60.00
2023-01-29T01:53:36.350Z,61.20
2023-01-29T01:56:11.788Z,62.60
2023-01-29T01:58:59.578Z,63.10
2023-01-29T02:01:28.284Z,63.40
2023-01-29T02:04:16.498Z,60.10
2023-01-29T02:06:45.483Z,56.10
2023-01-29T02:09:26.199Z,53.60
2023-01-29T02:11:54.401Z,52.70
2023-01-29T02:14:22.885Z,51.30
2023-01-29T02:16:51.326Z,50.30
2023-01-29T02:19:40.335Z,49.10
2023-01-29T02:22:37.873Z,48.10
2023-01-29T02:25:37.468Z,51.50
2023-01-29T02:28:46.081Z,55.90
2023-01-29T02:31:30.884Z,58.80
2023-01-29T02:34:31.633Z,60.80
2023-01-29T02:37:08.567Z,62.50
2023-01-29T02:39:54.324Z,63.50
2023-01-29T02:42:25.522Z,64.40
2023-01-29T02:45:00.376Z,64.70
2023-01-29T02:47:43.183Z,62.60
2023-01-29T02:50:33.423Z,57.50
2023-01-29T02:53:16.523Z,55.00
2023-01-29T02:55:52.218Z,53.50
2023-01-29T02:58:46.187Z,52.50
2023-01-29T03:01:27.585Z,51.90
2023-01-29T03:03:59.695Z,51.10
2023-01-29T03:06:36.250Z,50.10
2023-01-29T03:09:14.652Z,49.90
2023-01-29T03:11:47.656Z,48.90
2023-01-29T03:14:21.740Z,48.00
2023-01-29T03:16:54.505Z,47.60
2023-01-29T03:19:41.996Z,48.80
2023-01-29T03:22:21.439Z,54.40
2023-01-29T03:25:00.281Z,57.90
2023-01-29T03:27:55.145Z,60.10
2023-01-29T03:30:25.932Z,62.00
2023-01-29T03:33:14.648Z,63.50
2023-01-29T03:36:07.003Z,64.60
2023-01-29T03:38:35.300Z,65.20
2023-01-29T03:41:09.460Z,65.00
2023-01-29T03:43:47.468Z,65.70
2023-01-29T03:46:52.134Z,60.00
2023-01-29T03:49:54.266Z,56.60
2023-01-29T03:53:11.653Z,54.50
2023-01-29T03:56:02.843Z,52.60
2023-01-29T03:58:35.295Z,51.10
2023-01-29T04:01:15.491Z,49.90
2023-01-29T04:03:55.230Z,48.90
2023-01-29T04:06:27.093Z,49.60
2023-01-29T04:09:56.154Z,54.70
2023-01-29T04:12:32.501Z,58.30
2023-01-29T04:15:02.891Z,60.40
2023-01-29T04:17:43.635Z,62.20
2023-01-29T04:20:20.148Z,63.50
2023-01-29T04:22:50.805Z,64.80
2023-01-29T04:25:30.743Z,64.90
2023-01-29T04:28:01.971Z,65.50
2023-01-29T04:30:43.807Z,65.40
2023-01-29T04:33:35.941Z,58.80
2023-01-29T04:36:26.002Z,56.30
2023-01-29T04:39:13.517Z,54.10
2023-01-29T04:42:03.383Z,52.70
2023-01-29T04:44:48.544Z,51.40
2023-01-29T04:47:50.949Z,50.10
2023-01-29T04:50:31.066Z,54.00
2023-01-29T04:53:02.227Z,58.10
2023-01-29T04:55:39.754Z,60.40
2023-01-29T04:58:19.958Z,62.00
2023-01-29T05:00:53.552Z,63.80
2023-01-29T05:03:26.432Z,64.70
2023-01-29T05:05:57.897Z,66.40
2023-01-29T05:08:27.774Z,66.70
2023-01-29T05:10:58.176Z,67.20
2023-01-29T05:13:29.449Z,66.50
2023-01-29T05:16:26.753Z,61.20
2023-01-29T05:18:55.326Z,57.90
2023-01-29T05:21:24.864Z,56.20
2023-01-29T05:24:13.380Z,54.70
2023-01-29T05:26:42.626Z,53.30
2023-01-29T05:29:13.295Z,53.00
2023-01-29T05:31:44.339Z,52.60
2023-01-29T05:34:12.617Z,57.60
2023-01-29T05:36:40.920Z,60.80
2023-01-29T05:39:09.274Z,62.80
2023-01-29T05:41:37.397Z,64.50
2023-01-29T05:44:05.804Z,65.90
2023-01-29T05:46:36.280Z,67.10
2023-01-29T05:49:05.091Z,68.00
2023-01-29T05:51:32.900Z,68.70
2023-01-29T05:54:01.203Z,68.40
2023-01-29T05:56:29.446Z,68.20
2023-01-29T05:58:57.982Z,62.30
2023-01-29T06:01:27.344Z,59.20
2023-01-29T06:03:55.566Z,57.30
2023-01-29T06:06:23.716Z,55.80
2023-01-29T06:08:51.943Z,55.00
2023-01-29T06:11:20.150Z,53.00
2023-01-29T06:13:48.768Z,51.70
2023-01-29T06:16:17.762Z,53.20
2023-01-29T06:18:45.926Z,58.40
2023-01-29T06:21:15.187Z,60.90
2023-01-29T06:23:43.644Z,62.80
2023-01-29T06:26:14.624Z,64.50
2023-01-29T06:28:44.018Z,65.60
2023-01-29T06:31:27.427Z,67.00
2023-01-29T06:34:01.602Z,67.60
2023-01-29T06:36:29.678Z,68.40
2023-01-29T06:38:57.972Z,68.50
2023-01-29T06:41:26.952Z,68.30
2023-01-29T06:43:55.061Z,62.50
2023-01-29T06:46:23.551Z,59.60
2023-01-29T06:48:51.796Z,57.40
2023-01-29T06:51:20.070Z,56.00
2023-01-29T06:53:48.381Z,54.40
2023-01-29T06:56:16.468Z,53.10
2023-01-29T06:58:44.691Z,52.00
2023-01-29T07:01:25.382Z,52.20
2023-01-29T07:04:02.069Z,58.00
2023-01-29T07:06:30.850Z,61.20
2023-01-29T07:08:59.234Z,63.30
2023-01-29T07:11:27.522Z,65.00
2023-01-29T07:13:55.894Z,66.20
2023-01-29T07:16:24.214Z,67.50
2023-01-29T07:18:52.571Z,68.20
2023-01-29T07:21:20.915Z,68.80
2023-01-29T07:23:49.139Z,68.90
2023-01-29T07:26:17.876Z,68.90
2023-01-29T07:28:46.343Z,65.20
2023-01-29T07:31:15.028Z,60.40
2023-01-29T07:33:46.976Z,58.80
2023-01-29T07:36:15.538Z,56.40
2023-01-29T07:38:43.853Z,55.00
2023-01-29T07:41:12.702Z,53.60
2023-01-29T07:43:41.049Z,55.60
2023-01-29T07:46:09.735Z,60.40
2023-01-29T07:48:38.103Z,63.10
2023-01-29T07:51:06.570Z,64.50
2023-01-29T07:53:34.918Z,66.10
2023-01-29T07:56:03.814Z,67.40
2023-01-29T07:58:32.118Z,68.50
2023-01-29T08:01:00.280Z,69.30
2023-01-29T08:03:28.624Z,69.60
2023-01-29T08:05:58.834Z,69.60
2023-01-29T08:08:27.088Z,70.00
2023-01-29T08:10:55.348Z,65.60
2023-01-29T08:13:23.858Z,61.30
2023-01-29T08:15:52.035Z,58.80
2023-01-29T08:18:20.340Z,57.30
2023-01-29T08:20:48.733Z,55.90
2023-01-29T08:23:17.330Z,54.60
2023-01-29T08:25:45.647Z,59.80
2023-01-29T08:28:13.903Z,62.70
2023-01-29T08:30:42.342Z,64.80
2023-01-29T08:33:11.020Z,66.70
2023-01-29T08:35:39.005Z,68.50
2023-01-29T08:38:07.302Z,70.00
2023-01-29T08:40:35.926Z,70.70
2023-01-29T08:43:08.995Z,68.30
2023-01-29T08:45:40.424Z,67.00
2023-01-29T08:48:10.104Z,66.20
2023-01-29T08:50:38.777Z,65.70
2023-01-29T08:53:09.059Z,66.00
2023-01-29T08:55:39.300Z,65.90
2023-01-29T08:58:12.347Z,66.50
2023-01-29T09:00:40.783Z,66.60
2023-01-29T09:03:09.031Z,66.40
2023-01-29T09:05:38.643Z,66.10
2023-01-29T09:08:11.965Z,65.80
2023-01-29T09:10:40.755Z,65.30
2023-01-29T09:13:09.067Z,61.00
2023-01-29T09:15:37.495Z,59.70
2023-01-29T09:18:06.237Z,58.80
2023-01-29T09:20:34.231Z,58.30
2023-01-29T09:23:07.472Z,57.20
2023-01-29T09:25:38.021Z,56.40
2023-01-29T09:28:06.577Z,56.10
2023-01-29T09:30:35.038Z,56.20
2023-01-29T09:33:03.251Z,56.30
2023-01-29T09:35:31.552Z,56.80
2023-01-29T09:38:00.292Z,57.30
2023-01-29T09:41:00.693Z,57.40
2023-01-29T09:43:48.451Z,57.20
2023-01-29T09:46:42.413Z,57.60
2023-01-29T09:49:21.643Z,58.60
2023-01-29T09:52:13.240Z,60.30
2023-01-29T09:55:20.033Z,62.10
2023-01-29T09:58:05.712Z,63.90
2023-01-29T10:01:14.396Z,65.30
2023-01-29T10:03:48.855Z,67.20
2023-01-29T10:06:44.893Z,68.50
2023-01-29T10:09:43.716Z,70.10
2023-01-29T10:12:36.037Z,71.50
2023-01-29T10:15:41.784Z,72.80
2023-01-29T10:18:22.335Z,74.80
2023-01-29T10:21:27.417Z,75.00
2023-01-29T10:24:20.690Z,75.00
2023-01-29T10:26:50.093Z,76.30
2023-01-29T10:29:30.923Z,77.00
2023-01-29T10:32:03.323Z,77.30
2023-01-29T10:34:41.944Z,78.00
2023-01-29T10:37:27.431Z,78.20
2023-01-29T10:39:55.853Z,78.70
2023-01-29T10:42:30.554Z,79.20
2023-01-29T10:45:01.804Z,79.60
2023-01-29T10:47:59.699Z,80.10
2023-01-29T10:51:07.134Z,80.40
2023-01-29T10:54:01.544Z,79.50
2023-01-29T10:56:45.113Z,78.30
2023-01-29T10:59:51.560Z,78.00
2023-01-29T11:02:21.060Z,77.40
2023-01-29T11:04:50.143Z,77.40
2023-01-29T11:07:20.546Z,76.90
2023-01-29T11:10:05.555Z,75.70
2023-01-29T11:12:35.478Z,75.20
2023-01-29T11:15:21.665Z,74.40
2023-01-29T11:18:12.272Z,73.90
2023-01-29T11:20:42.543Z,73.50
2023-01-29T11:23:40.320Z,73.00
2023-01-29T11:26:13.229Z,72.40
2023-01-29T11:28:47.498Z,72.30
2023-01-29T11:31:27.893Z,72.00
2023-01-29T11:34:22.144Z,71.80
2023-01-29T11:37:02.100Z,71.50
2023-01-29T11:39:32.444Z,71.00
2023-01-29T11:42:03.725Z,71.20
2023-01-29T11:44:41.626Z,71.10
2023-01-29T11:47:21.689Z,71.10
2023-01-29T11:50:03.834Z,71.30
2023-01-29T11:52:41.800Z,69.70
2023-01-29T11:55:24.680Z,65.80
2023-01-29T11:57:59.204Z,64.90
2023-01-29T12:00:34.193Z,64.80
2023-01-29T12:03:14.913Z,62.80
2023-01-29T12:05:54.504Z,61.20
2023-01-29T12:08:24.809Z,59.70
2023-01-29T12:11:07.330Z,58.30
2023-01-29T12:13:35.899Z,57.00
2023-01-29T12:16:31.484Z,56.40
2023-01-29T12:19:02.497Z,55.30
2023-01-29T12:21:58.506Z,54.30
2023-01-29T12:24:35.796Z,53.60
2023-01-29T12:27:24.321Z,52.80
2023-01-29T12:30:08.089Z,52.20
2023-01-29T12:32:57.312Z,52.50
2023-01-29T12:35:37.036Z,51.70
2023-01-29T12:38:19.823Z,51.60
2023-01-29T12:40:52.837Z,51.00
2023-01-29T12:43:28.482Z,50.00
2023-01-29T12:45:59.261Z,49.90
2023-01-29T12:48:34.719Z,49.40
2023-01-29T12:51:11.015Z,49.70
2023-01-29T12:53:40.977Z,48.80
2023-01-29T12:56:18.926Z,48.10
2023-01-29T12:58:54.120Z,48.20
2023-01-29T13:01:41.587Z,47.80
2023-01-29T13:04:17.140Z,47.40
2023-01-29T13:06:52.059Z,47.40
2023-01-29T13:09:33.493Z,47.00
2023-01-29T13:12:24.085Z,47.00
2023-01-29T13:15:10.785Z,46.70
2023-01-29T13:17:47.193Z,46.40
2023-01-29T13:20:23.692Z,46.20
2023-01-29T13:22:56.600Z,46.80
2023-01-29T13:25:25.198Z,46.00
2023-01-29T13:27:54.313Z,45.80
2023-01-29T13:30:28.527Z,45.50
2023-01-29T13:33:00.177Z,45.70
2023-01-29T13:35:29.411Z,45.50
2023-01-29T13:37:58.033Z,45.10
2023-01-29T13:40:30.868Z,45.20
2023-01-29T13:43:00.675Z,45.10
2023-01-29T13:45:45.378Z,45.00
2023-01-29T13:48:31.960Z,44.90
2023-01-29T13:51:10.317Z,45.00
2023-01-29T13:53:41.792Z,45.00
2023-01-29T13:56:34.286Z,44.60
2023-01-29T13:59:06.531Z,44.80
2023-01-29T14:01:50.029Z,44.80
2023-01-29T14:04:21.417Z,44.60
2023-01-29T14:06:54.828Z,44.60
2023-01-29T14:09:46.311Z,44.60
2023-01-29T14:12:23.567Z,44.70
2023-01-29T14:14:58.018Z,44.70
2023-01-29T14:17:27.596Z,44.30
2023-01-29T14:20:16.952Z,44.10
2023-01-29T14:22:45.587Z,43.90
2023-01-29T14:25:20.071Z,43.70
2023-01-29T14:27:49.607Z,44.00
2023-01-29T14:30:19.546Z,43.80
2023-01-29T14:32:50.440Z,43.80
2023-01-29T14:35:23.642Z,43.90
2023-01-29T14:37:55.949Z,43.80
2023-01-29T14:40:26.534Z,44.00
2023-01-29T14:43:16.881Z,43.90
2023-01-29T14:45:45.157Z,43.50
2023-01-29T14:48:13.572Z,43.50
2023-01-29T14:50:46.582Z,43.20
2023-01-29T14:53:47.834Z,43.10
2023-01-29T14:57:02.058Z,43.10
2023-01-29T14:59:33.065Z,43.10
2023-01-29T15:02:24.693Z,43.10
2023-01-29T15:04:58.673Z,43.50
2023-01-29T15:07:39.743Z,43.20
2023-01-29T15:10:22.750Z,43.10
2023-01-29T15:13:40.893Z,43.10
2023-01-29T15:16:45.696Z,43.10
2023-01-29T15:19:36.315Z,43.00
2023-01-29T15:22:04.603Z,43.00
2023-01-29T15:24:33.056Z,42.80
2023-01-29T15:27:02.066Z,43.10
2023-01-29T15:29:30.718Z,43.10
2023-01-29T15:31:59.534Z,42.80
2023-01-29T15:34:28.038Z,42.70
2023-01-29T15:36:56.290Z,42.70
2023-01-29T15:39:25.784Z,42.80
2023-01-29T15:42:15.707Z,42.70
2023-01-29T15:44:47.139Z,42.40
2023-01-29T15:47:16.227Z,42.30
2023-01-29T15:49:47.377Z,42.40
2023-01-29T15:52:20.899Z,42.20
2023-01-29T15:54:49.415Z,42.70
2023-01-29T15:57:29.915Z,42.60
2023-01-29T15:59:59.284Z,42.70
2023-01-29T16:02:36.906Z,42.30
2023-01-29T16:05:16.736Z,42.40
2023-01-29T16:07:46.286Z,42.30
2023-01-29T16:10:23.372Z,42.30
2023-01-29T16:12:52.989Z,42.50
2023-01-29T16:15:35.173Z,42.20
2023-01-29T16:18:19.880Z,42.00
2023-01-29T16:20:52.808Z,42.00
2023-01-29T16:23:27.305Z,41.90
2023-01-29T16:25:57.714Z,41.80
2023-01-29T16:28:26.055Z,41.90
2023-01-29T16:31:04.122Z,42.00
2023-01-29T16:33:38.583Z,42.10
2023-01-29T16:36:29.550Z,41.80
2023-01-29T16:39:07.433Z,41.90
2023-01-29T16:41:38.901Z,41.70
2023-01-29T16:44:29.814Z,41.60
2023-01-29T16:47:06.472Z,41.70
2023-01-29T16:49:34.915Z,41.70
2023-01-29T16:52:30.425Z,41.50
2023-01-29T16:55:22.758Z,41.40
2023-01-29T16:57:55.964Z,41.40
2023-01-29T17:00:30.144Z,41.30
2023-01-29T17:03:07.915Z,40.90
2023-01-29T17:05:38.483Z,41.20
2023-01-29T17:08:07.407Z,40.80
2023-01-29T17:10:36.451Z,40.90
2023-01-29T17:13:07.908Z,40.60
2023-01-29T17:15:42.475Z,40.70
2023-01-29T17:18:21.257Z,40.60
2023-01-29T17:20:50.243Z,40.60
2023-01-29T17:23:18.450Z,40.70
2023-01-29T17:25:47.919Z,40.80
2023-01-29T17:28:18.061Z,40.60
2023-01-29T17:30:56.698Z,40.70
2023-01-29T17:33:34.135Z,40.40
2023-01-29T17:36:02.421Z,40.50
2023-01-29T17:38:30.689Z,40.90
2023-01-29T17:41:07.156Z,40.40
2023-01-29T17:43:35.729Z,40.50
2023-01-29T17:46:04.137Z,40.30
2023-01-29T17:48:32.649Z,40.20
2023-01-29T17:51:04.907Z,40.00
2023-01-29T17:53:44.799Z,39.80
2023-01-29T17:56:19.402Z,39.80
2023-01-29T17:58:47.786Z,39.90
2023-01-29T18:01:16.704Z,39.70
2023-01-29T18:03:45.013Z,39.60
2023-01-29T18:06:25.801Z,39.70
2023-01-29T18:08:54.008Z,40.20
2023-01-29T18:11:22.358Z,39.70
2023-01-29T18:13:50.928Z,39.30
2023-01-29T18:16:19.265Z,39.40
2023-01-29T18:18:47.573Z,39.50
2023-01-29T18:21:15.833Z,39.50
2023-01-29T18:23:44.598Z,39.20
2023-01-29T18:26:13.559Z,39.40
2023-01-29T18:28:41.919Z,39.20
2023-01-29T18:31:12.928Z,39.30
2023-01-29T18:33:42.096Z,39.30
2023-01-29T18:36:10.423Z,39.10
2023-01-29T18:38:38.834Z,39.10
2023-01-29T18:41:08.634Z,39.20
2023-01-29T18:43:40.758Z,39.20
2023-01-29T18:46:11.692Z,38.90
2023-01-29T18:48:42.663Z,39.10
2023-01-29T18:51:11.522Z,38.80
2023-01-29T18:53:39.891Z,39.00
2023-01-29T18:56:08.668Z,39.00
2023-01-29T18:58:37.472Z,38.70
2023-01-29T19:01:07.675Z,38.80
2023-01-29T19:03:36.671Z,38.60
2023-01-29T19:06:06.881Z,38.60
2023-01-29T19:08:36.909Z,38.60
2023-01-29T19:11:05.443Z,38.40
2023-01-29T19:13:35.425Z,38.40
2023-01-29T19:16:08.247Z,38.40
2023-01-29T19:18:36.995Z,38.60
2023-01-29T19:21:10.016Z,42.60
2023-01-29T19:23:38.860Z,47.70
2023-01-29T19:26:07.600Z,50.30
2023-01-29T19:28:35.699Z,52.60
2023-01-29T19:31:04.111Z,54.10
2023-01-29T19:33:32.489Z,55.60
2023-01-29T19:36:01.353Z,56.20
2023-01-29T19:38:29.949Z,56.70
2023-01-29T19:41:00.766Z,56.60
2023-01-29T19:43:32.685Z,51.90
2023-01-29T19:46:02.389Z,49.60
2023-01-29T19:48:30.592Z,48.60
2023-01-29T19:51:02.071Z,47.50
2023-01-29T19:53:30.867Z,53.40
2023-01-29T19:56:04.542Z,65.90
2023-01-29T19:58:33.415Z,70.10
2023-01-29T20:01:05.007Z,67.30
2023-01-29T20:03:33.747Z,65.20
2023-01-29T20:06:26.321Z,64.90
2023-01-29T20:08:54.668Z,60.40
2023-01-29T20:11:24.311Z,56.30
2023-01-29T20:13:54.656Z,54.30
2023-01-29T20:16:23.412Z,52.90
2023-01-29T20:18:51.338Z,52.30
2023-01-29T20:21:23.619Z,51.10
2023-01-29T20:23:53.082Z,50.20
2023-01-29T20:26:21.930Z,49.20
2023-01-29T20:28:50.560Z,48.50
2023-01-29T20:31:18.906Z,47.50
2023-01-29T20:33:47.217Z,46.80
2023-01-29T20:36:15.876Z,46.30
2023-01-29T20:38:43.797Z,45.50
2023-01-29T20:41:17.589Z,45.20
2023-01-29T20:43:47.182Z,45.00
2023-01-29T20:46:15.624Z,44.50
2023-01-29T20:48:44.077Z,43.90
2023-01-29T20:51:15.532Z,43.80
2023-01-29T20:53:46.018Z,43.60
2023-01-29T20:56:16.788Z,43.20
2023-01-29T20:58:45.763Z,42.90
2023-01-29T21:01:15.337Z,42.40
2023-01-29T21:03:43.991Z,42.60
2023-01-29T21:06:12.792Z,42.30
2023-01-29T21:08:41.345Z,42.20
2023-01-29T21:11:10.919Z,42.10
2023-01-29T21:13:39.709Z,41.90
2023-01-29T21:16:07.872Z,41.60
2023-01-29T21:18:36.400Z,41.90
2023-01-29T21:21:05.475Z,43.80
2023-01-29T21:23:33.823Z,43.40
2023-01-29T21:26:03.871Z,43.00
2023-01-29T21:28:32.779Z,43.00
2023-01-29T21:31:07.743Z,42.70
2023-01-29T21:33:36.419Z,42.60
2023-01-29T21:36:05.380Z,42.60
2023-01-29T21:38:33.701Z,42.30
2023-01-29T21:41:04.706Z,42.60
2023-01-29T21:43:33.177Z,41.70
2023-01-29T21:46:03.992Z,41.70
2023-01-29T21:48:32.450Z,41.70
2023-01-29T21:51:00.755Z,41.60
2023-01-29T21:53:28.985Z,41.50
2023-01-29T21:56:04.901Z,41.20
2023-01-29T21:58:33.856Z,41.20
2023-01-29T22:01:28.094Z,41.20
2023-01-29T22:03:50.586Z,40.90
2023-01-29T22:06:18.850Z,45.00
2023-01-29T22:08:49.468Z,49.50
2023-01-29T22:11:18.594Z,52.40
2023-01-29T22:13:47.125Z,54.10
2023-01-29T22:16:17.173Z,56.40
2023-01-29T22:18:45.613Z,57.80
2023-01-29T22:21:13.898Z,58.50
2023-01-29T22:23:42.292Z,59.60
2023-01-29T22:26:11.627Z,59.70
2023-01-29T22:28:39.978Z,54.00
2023-01-29T22:31:08.488Z,51.80
2023-01-29T22:33:37.191Z,50.20
2023-01-29T22:36:05.332Z,49.10
2023-01-29T22:38:33.505Z,48.30
2023-01-29T22:41:02.144Z,47.40
2023-01-29T22:43:30.703Z,46.70
2023-01-29T22:45:58.893Z,46.10
2023-01-29T22:48:27.304Z,45.30
2023-01-29T22:50:59.818Z,44.90
2023-01-29T22:53:28.162Z,44.50
2023-01-29T22:55:56.328Z,44.10
2023-01-29T22:58:24.623Z,43.60
2023-01-29T23:00:52.722Z,43.40
2023-01-29T23:03:21.019Z,43.10
2023-01-29T23:05:49.348Z,43.00
2023-01-29T23:08:17.520Z,42.40
2023-01-29T23:10:46.198Z,42.20
2023-01-29T23:13:14.502Z,42.70
2023-01-29T23:15:42.895Z,41.80
2023-01-29T23:18:11.114Z,43.40
2023-01-29T23:20:39.343Z,49.20
2023-01-29T23:23:07.650Z,52.10
2023-01-29T23:25:35.735Z,54.60
2023-01-29T23:28:03.982Z,56.50
2023-01-29T23:30:32.486Z,58.20
2023-01-29T23:33:00.830Z,59.60
2023-01-29T23:35:29.027Z,60.70
2023-01-29T23:37:57.610Z,60.40
2023-01-29T23:40:25.890Z,61.60
2023-01-29T23:42:54.240Z,57.10
2023-01-29T23:45:22.365Z,54.20
2023-01-29T23:47:50.604Z,52.50
2023-01-29T23:50:19.173Z,51.30
2023-01-29T23:52:47.896Z,50.10
2023-01-29T23:55:16.115Z,49.10
2023-01-29T23:57:44.482Z,48.40
